sensor_id;sensor_type;location;lat;lon;timestamp;P1;durP1;ratioP1;P2;durP2;ratioP2
32521;SDS011;18963;51.504;5.316;2023-05-03T00:01:10;5.72;;;3.50;;
32521;SDS011;18963;51.504;5.316;2023-05-03T00:03:35;10.48;;;3.97;;
32521;SDS011;18963;51.504;5.316;2023-05-03T00:08:34;6.40;;;5.30;;
32521;SDS011;18963;51.504;5.316;2023-05-03T00:10:59;8.48;;;6.55;;
32521;SDS011;18963;51.504;5.316;2023-05-03T00:13:25;7.65;;;6.93;;
32521;SDS011;18963;51.504;5.316;2023-05-03T00:15:50;14.45;;;8.13;;
32521;SDS011;18963;51.504;5.316;2023-05-03T00:18:16;8.88;;;7.97;;
32521;SDS011;18963;51.504;5.316;2023-05-03T00:23:07;9.07;;;8.30;;
32521;SDS011;18963;51.504;5.316;2023-05-03T00:27:58;9.38;;;8.50;;
32521;SDS011;18963;51.504;5.316;2023-05-03T00:32:49;11.43;;;10.43;;
32521;SDS011;18963;51.504;5.316;2023-05-03T00:37:41;6.63;;;2.55;;
32521;SDS011;18963;51.504;5.316;2023-05-03T00:42:33;6.43;;;2.03;;
32521;SDS011;18963;51.504;5.316;2023-05-03T00:45:03;7.03;;;2.65;;
32521;SDS011;18963;51.504;5.316;2023-05-03T00:47:30;5.13;;;2.67;;
32521;SDS011;18963;51.504;5.316;2023-05-03T00:49:56;6.35;;;2.90;;
32521;SDS011;18963;51.504;5.316;2023-05-03T00:52:23;6.22;;;2.63;;
32521;SDS011;18963;51.504;5.316;2023-05-03T00:54:51;7.85;;;2.42;;
32521;SDS011;18963;51.504;5.316;2023-05-03T00:57:16;6.78;;;2.40;;
32521;SDS011;18963;51.504;5.316;2023-05-03T01:02:08;4.60;;;2.38;;
32521;SDS011;18963;51.504;5.316;2023-05-03T01:04:34;5.15;;;2.33;;
32521;SDS011;18963;51.504;5.316;2023-05-03T01:12:18;5.95;;;2.42;;
32521;SDS011;18963;51.504;5.316;2023-05-03T01:17:39;9.43;;;3.50;;
32521;SDS011;18963;51.504;5.316;2023-05-03T01:20:12;6.05;;;3.13;;
32521;SDS011;18963;51.504;5.316;2023-05-03T01:22:46;7.00;;;3.08;;
32521;SDS011;18963;51.504;5.316;2023-05-03T01:25:23;8.68;;;3.28;;
32521;SDS011;18963;51.504;5.316;2023-05-03T01:27:50;7.28;;;2.97;;
32521;SDS011;18963;51.504;5.316;2023-05-03T01:30:16;6.90;;;2.78;;
32521;SDS011;18963;51.504;5.316;2023-05-03T01:37:51;6.88;;;3.15;;
32521;SDS011;18963;51.504;5.316;2023-05-03T01:40:20;11.00;;;9.90;;
32521;SDS011;18963;51.504;5.316;2023-05-03T01:42:47;11.85;;;10.60;;
32521;SDS011;18963;51.504;5.316;2023-05-03T01:45:15;9.18;;;8.38;;
32521;SDS011;18963;51.504;5.316;2023-05-03T01:47:41;9.75;;;8.75;;
32521;SDS011;18963;51.504;5.316;2023-05-03T01:50:07;9.32;;;8.55;;
32521;SDS011;18963;51.504;5.316;2023-05-03T01:52:33;10.27;;;9.32;;
32521;SDS011;18963;51.504;5.316;2023-05-03T01:57:24;10.40;;;9.20;;
32521;SDS011;18963;51.504;5.316;2023-05-03T01:59:50;9.85;;;9.05;;
32521;SDS011;18963;51.504;5.316;2023-05-03T02:04:41;10.90;;;9.82;;
32521;SDS011;18963;51.504;5.316;2023-05-03T02:07:06;11.75;;;10.52;;
32521;SDS011;18963;51.504;5.316;2023-05-03T02:09:33;11.05;;;10.15;;
32521;SDS011;18963;51.504;5.316;2023-05-03T02:11:58;10.90;;;9.90;;
32521;SDS011;18963;51.504;5.316;2023-05-03T02:16:49;10.43;;;9.32;;
32521;SDS011;18963;51.504;5.316;2023-05-03T02:21:41;11.18;;;10.20;;
32521;SDS011;18963;51.504;5.316;2023-05-03T02:24:06;12.75;;;11.75;;
32521;SDS011;18963;51.504;5.316;2023-05-03T02:28:57;11.18;;;10.07;;
32521;SDS011;18963;51.504;5.316;2023-05-03T02:33:49;10.23;;;9.32;;
32521;SDS011;18963;51.504;5.316;2023-05-03T02:38:40;12.20;;;11.10;;
32521;SDS011;18963;51.504;5.316;2023-05-03T02:41:05;13.05;;;11.82;;
32521;SDS011;18963;51.504;5.316;2023-05-03T02:45:57;11.48;;;10.48;;
32521;SDS011;18963;51.504;5.316;2023-05-03T02:50:48;13.77;;;12.43;;
32521;SDS011;18963;51.504;5.316;2023-05-03T02:55:39;11.65;;;10.57;;
32521;SDS011;18963;51.504;5.316;2023-05-03T02:58:05;11.48;;;10.38;;
32521;SDS011;18963;51.504;5.316;2023-05-03T03:00:31;11.63;;;10.63;;
32521;SDS011;18963;51.504;5.316;2023-05-03T03:05:23;10.30;;;9.50;;
32521;SDS011;18963;51.504;5.316;2023-05-03T03:07:49;10.75;;;9.65;;
32521;SDS011;18963;51.504;5.316;2023-05-03T03:10:15;14.02;;;12.93;;
32521;SDS011;18963;51.504;5.316;2023-05-03T03:12:40;11.90;;;10.82;;
32521;SDS011;18963;51.504;5.316;2023-05-03T03:17:32;10.82;;;10.02;;
32521;SDS011;18963;51.504;5.316;2023-05-03T03:19:57;10.52;;;9.60;;
32521;SDS011;18963;51.504;5.316;2023-05-03T03:22:25;10.90;;;10.00;;
32521;SDS011;18963;51.504;5.316;2023-05-03T03:24:51;11.40;;;10.13;;
32521;SDS011;18963;51.504;5.316;2023-05-03T03:27:17;12.90;;;11.82;;
32521;SDS011;18963;51.504;5.316;2023-05-03T03:29:42;10.98;;;9.88;;
32521;SDS011;18963;51.504;5.316;2023-05-03T03:34:33;11.38;;;10.43;;
32521;SDS011;18963;51.504;5.316;2023-05-03T03:39:25;13.35;;;10.57;;
32521;SDS011;18963;51.504;5.316;2023-05-03T03:44:16;12.02;;;10.70;;
32521;SDS011;18963;51.504;5.316;2023-05-03T03:49:07;12.40;;;11.40;;
32521;SDS011;18963;51.504;5.316;2023-05-03T03:53:58;11.55;;;10.45;;
32521;SDS011;18963;51.504;5.316;2023-05-03T03:58:50;11.70;;;10.50;;
32521;SDS011;18963;51.504;5.316;2023-05-03T04:03:41;11.82;;;10.82;;
32521;SDS011;18963;51.504;5.316;2023-05-03T04:06:10;13.48;;;10.98;;
32521;SDS011;18963;51.504;5.316;2023-05-03T04:08:35;13.25;;;12.15;;
32521;SDS011;18963;51.504;5.316;2023-05-03T04:11:01;13.00;;;11.70;;
32521;SDS011;18963;51.504;5.316;2023-05-03T04:15:55;15.50;;;14.20;;
32521;SDS011;18963;51.504;5.316;2023-05-03T04:18:21;13.70;;;12.57;;
32521;SDS011;18963;51.504;5.316;2023-05-03T04:20:47;18.10;;;16.58;;
32521;SDS011;18963;51.504;5.316;2023-05-03T04:25:39;17.77;;;16.47;;
32521;SDS011;18963;51.504;5.316;2023-05-03T04:28:10;18.02;;;16.75;;
32521;SDS011;18963;51.504;5.316;2023-05-03T04:30:37;18.10;;;16.80;;
32521;SDS011;18963;51.504;5.316;2023-05-03T04:33:03;16.92;;;15.73;;
32521;SDS011;18963;51.504;5.316;2023-05-03T04:37:54;17.63;;;15.80;;
32521;SDS011;18963;51.504;5.316;2023-05-03T04:42:46;19.35;;;17.83;;
32521;SDS011;18963;51.504;5.316;2023-05-03T04:45:12;17.83;;;16.63;;
32521;SDS011;18963;51.504;5.316;2023-05-03T04:47:38;17.85;;;16.52;;
32521;SDS011;18963;51.504;5.316;2023-05-03T04:50:04;18.05;;;16.75;;
32521;SDS011;18963;51.504;5.316;2023-05-03T04:52:31;19.67;;;18.10;;
32521;SDS011;18963;51.504;5.316;2023-05-03T04:54:57;19.98;;;17.98;;
32521;SDS011;18963;51.504;5.316;2023-05-03T04:57:23;18.00;;;16.70;;
32521;SDS011;18963;51.504;5.316;2023-05-03T04:59:48;18.08;;;16.85;;
32521;SDS011;18963;51.504;5.316;2023-05-03T05:02:14;19.80;;;18.30;;
32521;SDS011;18963;51.504;5.316;2023-05-03T05:04:40;18.73;;;17.17;;
32521;SDS011;18963;51.504;5.316;2023-05-03T05:07:05;19.85;;;18.25;;
32521;SDS011;18963;51.504;5.316;2023-05-03T05:11:57;18.65;;;17.38;;
32521;SDS011;18963;51.504;5.316;2023-05-03T05:16:50;20.80;;;18.58;;
32521;SDS011;18963;51.504;5.316;2023-05-03T05:19:15;18.67;;;17.30;;
32521;SDS011;18963;51.504;5.316;2023-05-03T05:24:06;18.00;;;16.50;;
32521;SDS011;18963;51.504;5.316;2023-05-03T05:28:58;20.10;;;18.60;;
32521;SDS011;18963;51.504;5.316;2023-05-03T05:33:49;21.58;;;20.17;;
32521;SDS011;18963;51.504;5.316;2023-05-03T05:38:41;19.02;;;17.73;;
32521;SDS011;18963;51.504;5.316;2023-05-03T05:43:33;21.30;;;19.83;;
32521;SDS011;18963;51.504;5.316;2023-05-03T05:48:25;22.60;;;20.95;;
32521;SDS011;18963;51.504;5.316;2023-05-03T05:53:16;21.17;;;19.65;;
32521;SDS011;18963;51.504;5.316;2023-05-03T05:58:07;22.83;;;21.13;;
32521;SDS011;18963;51.504;5.316;2023-05-03T06:00:33;20.42;;;18.90;;
32521;SDS011;18963;51.504;5.316;2023-05-03T06:03:00;22.25;;;20.60;;
32521;SDS011;18963;51.504;5.316;2023-05-03T06:07:51;22.45;;;20.80;;
32521;SDS011;18963;51.504;5.316;2023-05-03T06:12:42;21.90;;;20.23;;
32521;SDS011;18963;51.504;5.316;2023-05-03T06:17:33;22.33;;;20.92;;
32521;SDS011;18963;51.504;5.316;2023-05-03T06:19:59;21.88;;;20.33;;
32521;SDS011;18963;51.504;5.316;2023-05-03T06:24:51;19.98;;;18.67;;
32521;SDS011;18963;51.504;5.316;2023-05-03T06:29:42;21.48;;;20.08;;
32521;SDS011;18963;51.504;5.316;2023-05-03T06:32:09;21.10;;;19.60;;
32521;SDS011;18963;51.504;5.316;2023-05-03T06:34:35;20.52;;;19.27;;
32521;SDS011;18963;51.504;5.316;2023-05-03T06:37:01;19.10;;;17.85;;
32521;SDS011;18963;51.504;5.316;2023-05-03T06:41:52;19.55;;;18.15;;
32521;SDS011;18963;51.504;5.316;2023-05-03T06:46:43;18.05;;;16.63;;
32521;SDS011;18963;51.504;5.316;2023-05-03T06:51:35;17.42;;;16.05;;
32521;SDS011;18963;51.504;5.316;2023-05-03T06:56:31;16.25;;;14.68;;
32521;SDS011;18963;51.504;5.316;2023-05-03T06:58:57;16.85;;;15.30;;
32521;SDS011;18963;51.504;5.316;2023-05-03T07:03:48;15.07;;;13.88;;
32521;SDS011;18963;51.504;5.316;2023-05-03T07:08:46;13.80;;;12.80;;
32521;SDS011;18963;51.504;5.316;2023-05-03T07:11:13;13.68;;;12.57;;
32521;SDS011;18963;51.504;5.316;2023-05-03T07:16:04;14.80;;;13.48;;
32521;SDS011;18963;51.504;5.316;2023-05-03T07:18:30;13.73;;;12.63;;
32521;SDS011;18963;51.504;5.316;2023-05-03T07:20:56;13.75;;;12.75;;
32521;SDS011;18963;51.504;5.316;2023-05-03T07:23:21;14.10;;;12.95;;
32521;SDS011;18963;51.504;5.316;2023-05-03T07:25:47;12.52;;;11.63;;
32521;SDS011;18963;51.504;5.316;2023-05-03T07:28:12;13.55;;;12.32;;
32521;SDS011;18963;51.504;5.316;2023-05-03T07:30:38;12.43;;;11.32;;
32521;SDS011;18963;51.504;5.316;2023-05-03T07:33:04;13.75;;;12.18;;
32521;SDS011;18963;51.504;5.316;2023-05-03T07:35:30;11.15;;;10.05;;
32521;SDS011;18963;51.504;5.316;2023-05-03T07:37:56;12.77;;;11.77;;
32521;SDS011;18963;51.504;5.316;2023-05-03T07:40:22;11.45;;;10.55;;
32521;SDS011;18963;51.504;5.316;2023-05-03T07:42:48;12.15;;;11.15;;
32521;SDS011;18963;51.504;5.316;2023-05-03T07:45:14;12.88;;;10.73;;
32521;SDS011;18963;51.504;5.316;2023-05-03T07:47:39;11.82;;;10.73;;
32521;SDS011;18963;51.504;5.316;2023-05-03T07:50:05;13.07;;;11.02;;
32521;SDS011;18963;51.504;5.316;2023-05-03T07:52:35;10.98;;;10.10;;
32521;SDS011;18963;51.504;5.316;2023-05-03T07:55:01;11.32;;;10.32;;
32521;SDS011;18963;51.504;5.316;2023-05-03T07:57:27;11.15;;;10.25;;
32521;SDS011;18963;51.504;5.316;2023-05-03T07:59:53;10.88;;;9.68;;
32521;SDS011;18963;51.504;5.316;2023-05-03T08:02:19;9.45;;;8.65;;
32521;SDS011;18963;51.504;5.316;2023-05-03T08:04:45;11.32;;;9.68;;
32521;SDS011;18963;51.504;5.316;2023-05-03T08:07:11;11.75;;;10.15;;
32521;SDS011;18963;51.504;5.316;2023-05-03T08:09:37;11.98;;;10.05;;
32521;SDS011;18963;51.504;5.316;2023-05-03T08:12:02;11.75;;;10.75;;
32521;SDS011;18963;51.504;5.316;2023-05-03T08:14:28;10.88;;;9.57;;
32521;SDS011;18963;51.504;5.316;2023-05-03T08:16:54;10.23;;;9.23;;
32521;SDS011;18963;51.504;5.316;2023-05-03T08:19:19;10.23;;;7.78;;
32521;SDS011;18963;51.504;5.316;2023-05-03T08:21:45;8.35;;;7.43;;
32521;SDS011;18963;51.504;5.316;2023-05-03T08:24:11;7.75;;;6.95;;
32521;SDS011;18963;51.504;5.316;2023-05-03T08:26:38;7.07;;;6.38;;
32521;SDS011;18963;51.504;5.316;2023-05-03T08:29:04;7.53;;;6.82;;
32521;SDS011;18963;51.504;5.316;2023-05-03T08:31:30;8.50;;;7.35;;
32521;SDS011;18963;51.504;5.316;2023-05-03T08:33:55;8.20;;;7.50;;
32521;SDS011;18963;51.504;5.316;2023-05-03T08:36:21;7.32;;;6.30;;
32521;SDS011;18963;51.504;5.316;2023-05-03T08:38:47;7.43;;;6.40;;
32521;SDS011;18963;51.504;5.316;2023-05-03T08:41:26;7.70;;;6.20;;
32521;SDS011;18963;51.504;5.316;2023-05-03T08:43:54;8.50;;;6.13;;
32521;SDS011;18963;51.504;5.316;2023-05-03T08:46:21;6.80;;;5.72;;
32521;SDS011;18963;51.504;5.316;2023-05-03T08:48:47;6.68;;;5.70;;
32521;SDS011;18963;51.504;5.316;2023-05-03T08:51:14;8.35;;;5.57;;
32521;SDS011;18963;51.504;5.316;2023-05-03T08:53:41;7.63;;;5.88;;
32521;SDS011;18963;51.504;5.316;2023-05-03T08:56:10;7.25;;;5.72;;
32521;SDS011;18963;51.504;5.316;2023-05-03T08:58:40;8.68;;;6.00;;
32521;SDS011;18963;51.504;5.316;2023-05-03T09:01:06;7.22;;;6.15;;
32521;SDS011;18963;51.504;5.316;2023-05-03T09:03:33;7.55;;;5.90;;
32521;SDS011;18963;51.504;5.316;2023-05-03T09:06:00;10.20;;;8.18;;
32521;SDS011;18963;51.504;5.316;2023-05-03T09:08:29;8.82;;;7.35;;
32521;SDS011;18963;51.504;5.316;2023-05-03T09:10:55;11.15;;;8.02;;
32521;SDS011;18963;51.504;5.316;2023-05-03T09:13:28;9.27;;;8.32;;
32521;SDS011;18963;51.504;5.316;2023-05-03T09:15:56;9.68;;;8.77;;
32521;SDS011;18963;51.504;5.316;2023-05-03T09:18:22;10.30;;;8.02;;
32521;SDS011;18963;51.504;5.316;2023-05-03T09:20:49;8.82;;;7.90;;
32521;SDS011;18963;51.504;5.316;2023-05-03T09:23:36;7.40;;;6.60;;
32521;SDS011;18963;51.504;5.316;2023-05-03T09:26:01;8.07;;;6.80;;
32521;SDS011;18963;51.504;5.316;2023-05-03T09:28:27;8.30;;;6.20;;
32521;SDS011;18963;51.504;5.316;2023-05-03T09:31:05;7.88;;;6.43;;
32521;SDS011;18963;51.504;5.316;2023-05-03T09:33:31;8.98;;;6.78;;
32521;SDS011;18963;51.504;5.316;2023-05-03T09:36:01;8.40;;;7.05;;
32521;SDS011;18963;51.504;5.316;2023-05-03T09:38:29;7.88;;;7.05;;
32521;SDS011;18963;51.504;5.316;2023-05-03T09:40:56;7.03;;;6.43;;
32521;SDS011;18963;51.504;5.316;2023-05-03T09:43:22;7.88;;;7.07;;
32521;SDS011;18963;51.504;5.316;2023-05-03T09:45:47;7.70;;;6.80;;
32521;SDS011;18963;51.504;5.316;2023-05-03T09:48:13;7.82;;;6.78;;
32521;SDS011;18963;51.504;5.316;2023-05-03T09:50:40;7.25;;;6.55;;
32521;SDS011;18963;51.504;5.316;2023-05-03T09:53:07;7.53;;;6.63;;
32521;SDS011;18963;51.504;5.316;2023-05-03T09:55:34;9.38;;;7.30;;
32521;SDS011;18963;51.504;5.316;2023-05-03T09:58:01;7.78;;;6.10;;
32521;SDS011;18963;51.504;5.316;2023-05-03T10:00:34;8.65;;;7.75;;
32521;SDS011;18963;51.504;5.316;2023-05-03T10:03:08;7.28;;;6.57;;
32521;SDS011;18963;51.504;5.316;2023-05-03T10:05:45;7.30;;;6.70;;
32521;SDS011;18963;51.504;5.316;2023-05-03T10:08:21;8.77;;;7.90;;
32521;SDS011;18963;51.504;5.316;2023-05-03T10:10:49;7.35;;;6.65;;
32521;SDS011;18963;51.504;5.316;2023-05-03T10:13:19;7.97;;;7.15;;
32521;SDS011;18963;51.504;5.316;2023-05-03T10:15:48;7.25;;;6.40;;
32521;SDS011;18963;51.504;5.316;2023-05-03T10:18:18;7.53;;;6.05;;
32521;SDS011;18963;51.504;5.316;2023-05-03T10:20:48;7.95;;;6.38;;
32521;SDS011;18963;51.504;5.316;2023-05-03T10:23:18;7.10;;;6.40;;
32521;SDS011;18963;51.504;5.316;2023-05-03T10:28:33;8.18;;;6.40;;
32521;SDS011;18963;51.504;5.316;2023-05-03T10:31:01;7.35;;;6.40;;
32521;SDS011;18963;51.504;5.316;2023-05-03T10:33:27;6.82;;;6.10;;
32521;SDS011;18963;51.504;5.316;2023-05-03T10:35:59;7.25;;;6.18;;
32521;SDS011;18963;51.504;5.316;2023-05-03T10:38:34;7.28;;;3.10;;
32521;SDS011;18963;51.504;5.316;2023-05-03T10:41:01;5.80;;;2.83;;
32521;SDS011;18963;51.504;5.316;2023-05-03T10:46:00;6.53;;;2.67;;
32521;SDS011;18963;51.504;5.316;2023-05-03T10:48:27;6.38;;;2.92;;
32521;SDS011;18963;51.504;5.316;2023-05-03T10:50:54;8.73;;;3.50;;
32521;SDS011;18963;51.504;5.316;2023-05-03T10:53:33;7.47;;;4.78;;
32521;SDS011;18963;51.504;5.316;2023-05-03T10:58:34;9.95;;;6.05;;
32521;SDS011;18963;51.504;5.316;2023-05-03T11:01:04;7.40;;;5.82;;
32521;SDS011;18963;51.504;5.316;2023-05-03T11:05:59;9.55;;;6.95;;
32521;SDS011;18963;51.504;5.316;2023-05-03T11:08:27;7.07;;;6.38;;
32521;SDS011;18963;51.504;5.316;2023-05-03T11:11:01;8.85;;;6.50;;
32521;SDS011;18963;51.504;5.316;2023-05-03T11:13:33;7.75;;;6.32;;
32521;SDS011;18963;51.504;5.316;2023-05-03T11:16:00;7.05;;;6.25;;
32521;SDS011;18963;51.504;5.316;2023-05-03T11:18:28;9.75;;;6.78;;
32521;SDS011;18963;51.504;5.316;2023-05-03T11:20:54;8.13;;;6.90;;
32521;SDS011;18963;51.504;5.316;2023-05-03T11:23:26;7.22;;;6.00;;
32521;SDS011;18963;51.504;5.316;2023-05-03T11:25:53;7.53;;;6.68;;
32521;SDS011;18963;51.504;5.316;2023-05-03T11:28:19;7.43;;;6.72;;
32521;SDS011;18963;51.504;5.316;2023-05-03T11:30:45;7.45;;;6.60;;
32521;SDS011;18963;51.504;5.316;2023-05-03T11:33:11;7.50;;;6.13;;
32521;SDS011;18963;51.504;5.316;2023-05-03T11:35:36;10.18;;;7.30;;
32521;SDS011;18963;51.504;5.316;2023-05-03T11:38:03;8.25;;;6.53;;
32521;SDS011;18963;51.504;5.316;2023-05-03T11:40:28;8.23;;;6.80;;
32521;SDS011;18963;51.504;5.316;2023-05-03T11:42:54;7.78;;;6.50;;
32521;SDS011;18963;51.504;5.316;2023-05-03T11:47:53;7.88;;;6.50;;
32521;SDS011;18963;51.504;5.316;2023-05-03T11:53:11;7.00;;;6.00;;
32521;SDS011;18963;51.504;5.316;2023-05-03T11:55:39;8.50;;;6.05;;
32521;SDS011;18963;51.504;5.316;2023-05-03T11:58:07;8.05;;;5.90;;
32521;SDS011;18963;51.504;5.316;2023-05-03T12:00:37;7.68;;;6.40;;
32521;SDS011;18963;51.504;5.316;2023-05-03T12:03:03;7.85;;;6.28;;
32521;SDS011;18963;51.504;5.316;2023-05-03T12:05:29;7.32;;;6.32;;
32521;SDS011;18963;51.504;5.316;2023-05-03T12:07:54;8.18;;;6.18;;
32521;SDS011;18963;51.504;5.316;2023-05-03T12:10:20;9.27;;;6.35;;
32521;SDS011;18963;51.504;5.316;2023-05-03T12:12:52;7.53;;;6.68;;
32521;SDS011;18963;51.504;5.316;2023-05-03T12:15:27;12.52;;;7.30;;
32521;SDS011;18963;51.504;5.316;2023-05-03T12:18:01;9.00;;;6.63;;
32521;SDS011;18963;51.504;5.316;2023-05-03T12:20:34;7.90;;;7.10;;
32521;SDS011;18963;51.504;5.316;2023-05-03T12:23:02;10.50;;;6.75;;
32521;SDS011;18963;51.504;5.316;2023-05-03T12:25:34;8.02;;;6.80;;
32521;SDS011;18963;51.504;5.316;2023-05-03T12:28:01;9.07;;;7.32;;
32521;SDS011;18963;51.504;5.316;2023-05-03T12:30:28;7.65;;;6.85;;
32521;SDS011;18963;51.504;5.316;2023-05-03T12:32:54;8.90;;;8.00;;
32521;SDS011;18963;51.504;5.316;2023-05-03T12:35:20;8.93;;;8.02;;
32521;SDS011;18963;51.504;5.316;2023-05-03T12:37:47;9.13;;;7.80;;
32521;SDS011;18963;51.504;5.316;2023-05-03T12:40:13;9.80;;;8.30;;
32521;SDS011;18963;51.504;5.316;2023-05-03T12:42:40;9.93;;;8.30;;
32521;SDS011;18963;51.504;5.316;2023-05-03T12:45:06;8.85;;;8.00;;
32521;SDS011;18963;51.504;5.316;2023-05-03T12:47:32;9.63;;;8.25;;
32521;SDS011;18963;51.504;5.316;2023-05-03T12:49:58;9.65;;;8.75;;
32521;SDS011;18963;51.504;5.316;2023-05-03T12:52:25;9.80;;;8.90;;
32521;SDS011;18963;51.504;5.316;2023-05-03T12:54:50;9.98;;;8.25;;
32521;SDS011;18963;51.504;5.316;2023-05-03T12:57:16;8.43;;;6.70;;
32521;SDS011;18963;51.504;5.316;2023-05-03T12:59:42;6.78;;;4.80;;
32521;SDS011;18963;51.504;5.316;2023-05-03T13:02:11;7.20;;;5.00;;
32521;SDS011;18963;51.504;5.316;2023-05-03T13:04:41;6.93;;;4.68;;
32521;SDS011;18963;51.504;5.316;2023-05-03T13:07:06;8.32;;;5.40;;
32521;SDS011;18963;51.504;5.316;2023-05-03T13:09:34;7.22;;;4.93;;
32521;SDS011;18963;51.504;5.316;2023-05-03T13:12:03;8.93;;;5.32;;
32521;SDS011;18963;51.504;5.316;2023-05-03T13:14:37;9.60;;;5.40;;
32521;SDS011;18963;51.504;5.316;2023-05-03T13:17:04;9.45;;;5.82;;
32521;SDS011;18963;51.504;5.316;2023-05-03T13:19:31;8.18;;;5.95;;
32521;SDS011;18963;51.504;5.316;2023-05-03T13:21:57;8.25;;;5.78;;
32521;SDS011;18963;51.504;5.316;2023-05-03T13:24:23;10.75;;;5.20;;
32521;SDS011;18963;51.504;5.316;2023-05-03T13:26:49;8.38;;;5.70;;
32521;SDS011;18963;51.504;5.316;2023-05-03T13:29:15;9.45;;;6.45;;
32521;SDS011;18963;51.504;5.316;2023-05-03T13:31:41;7.45;;;5.65;;
32521;SDS011;18963;51.504;5.316;2023-05-03T13:34:06;7.43;;;5.57;;
32521;SDS011;18963;51.504;5.316;2023-05-03T13:36:32;8.57;;;5.72;;
32521;SDS011;18963;51.504;5.316;2023-05-03T13:38:58;7.47;;;5.55;;
32521;SDS011;18963;51.504;5.316;2023-05-03T13:41:24;7.70;;;5.72;;
32521;SDS011;18963;51.504;5.316;2023-05-03T13:43:51;6.88;;;5.30;;
32521;SDS011;18963;51.504;5.316;2023-05-03T13:46:17;7.95;;;5.68;;
32521;SDS011;18963;51.504;5.316;2023-05-03T13:48:43;7.03;;;4.95;;
32521;SDS011;18963;51.504;5.316;2023-05-03T13:51:09;8.80;;;4.45;;
32521;SDS011;18963;51.504;5.316;2023-05-03T13:53:36;8.65;;;5.22;;
32521;SDS011;18963;51.504;5.316;2023-05-03T13:56:02;7.72;;;4.50;;
32521;SDS011;18963;51.504;5.316;2023-05-03T13:58:29;9.38;;;5.50;;
32521;SDS011;18963;51.504;5.316;2023-05-03T14:00:55;9.85;;;5.20;;
32521;SDS011;18963;51.504;5.316;2023-05-03T14:03:22;7.30;;;4.85;;
32521;SDS011;18963;51.504;5.316;2023-05-03T14:05:48;9.57;;;5.32;;
32521;SDS011;18963;51.504;5.316;2023-05-03T14:08:17;11.73;;;5.35;;
32521;SDS011;18963;51.504;5.316;2023-05-03T14:10:43;7.40;;;4.72;;
32521;SDS011;18963;51.504;5.316;2023-05-03T14:13:15;6.32;;;4.45;;
32521;SDS011;18963;51.504;5.316;2023-05-03T14:15:41;6.68;;;4.25;;
32521;SDS011;18963;51.504;5.316;2023-05-03T14:18:09;6.15;;;4.50;;
32521;SDS011;18963;51.504;5.316;2023-05-03T14:20:35;6.38;;;5.40;;
32521;SDS011;18963;51.504;5.316;2023-05-03T14:23:01;10.82;;;8.52;;
32521;SDS011;18963;51.504;5.316;2023-05-03T14:25:28;11.38;;;8.75;;
32521;SDS011;18963;51.504;5.316;2023-05-03T14:27:55;9.60;;;8.60;;
32521;SDS011;18963;51.504;5.316;2023-05-03T14:30:21;10.52;;;9.57;;
32521;SDS011;18963;51.504;5.316;2023-05-03T14:32:47;9.90;;;8.90;;
32521;SDS011;18963;51.504;5.316;2023-05-03T14:35:13;9.82;;;8.85;;
32521;SDS011;18963;51.504;5.316;2023-05-03T14:37:43;11.43;;;8.90;;
32521;SDS011;18963;51.504;5.316;2023-05-03T14:40:10;10.48;;;8.85;;
32521;SDS011;18963;51.504;5.316;2023-05-03T14:42:36;10.10;;;9.15;;
32521;SDS011;18963;51.504;5.316;2023-05-03T14:45:02;9.75;;;8.85;;
32521;SDS011;18963;51.504;5.316;2023-05-03T14:47:29;10.98;;;9.05;;
32521;SDS011;18963;51.504;5.316;2023-05-03T14:49:55;9.45;;;8.15;;
32521;SDS011;18963;51.504;5.316;2023-05-03T14:52:20;9.55;;;8.32;;
32521;SDS011;18963;51.504;5.316;2023-05-03T14:54:46;8.48;;;7.60;;
32521;SDS011;18963;51.504;5.316;2023-05-03T14:57:12;8.82;;;7.80;;
32521;SDS011;18963;51.504;5.316;2023-05-03T14:59:37;9.98;;;8.63;;
32521;SDS011;18963;51.504;5.316;2023-05-03T15:02:03;10.15;;;7.88;;
32521;SDS011;18963;51.504;5.316;2023-05-03T15:04:28;8.00;;;7.20;;
32521;SDS011;18963;51.504;5.316;2023-05-03T15:06:58;9.27;;;8.38;;
32521;SDS011;18963;51.504;5.316;2023-05-03T15:09:26;10.35;;;7.90;;
32521;SDS011;18963;51.504;5.316;2023-05-03T15:11:52;9.65;;;8.70;;
32521;SDS011;18963;51.504;5.316;2023-05-03T15:14:18;8.95;;;8.00;;
32521;SDS011;18963;51.504;5.316;2023-05-03T15:16:43;9.40;;;8.40;;
32521;SDS011;18963;51.504;5.316;2023-05-03T15:19:09;10.05;;;8.15;;
32521;SDS011;18963;51.504;5.316;2023-05-03T15:21:48;11.02;;;8.15;;
32521;SDS011;18963;51.504;5.316;2023-05-03T15:24:16;9.75;;;8.02;;
32521;SDS011;18963;51.504;5.316;2023-05-03T15:26:42;10.02;;;8.55;;
32521;SDS011;18963;51.504;5.316;2023-05-03T15:29:09;10.02;;;9.02;;
32521;SDS011;18963;51.504;5.316;2023-05-03T15:31:35;9.70;;;8.80;;
32521;SDS011;18963;51.504;5.316;2023-05-03T15:34:02;9.35;;;8.38;;
32521;SDS011;18963;51.504;5.316;2023-05-03T15:36:28;10.55;;;8.35;;
32521;SDS011;18963;51.504;5.316;2023-05-03T15:38:55;9.70;;;8.23;;
32521;SDS011;18963;51.504;5.316;2023-05-03T15:41:21;9.07;;;8.10;;
32521;SDS011;18963;51.504;5.316;2023-05-03T15:43:47;9.30;;;8.30;;
32521;SDS011;18963;51.504;5.316;2023-05-03T15:46:13;9.70;;;8.75;;
32521;SDS011;18963;51.504;5.316;2023-05-03T15:48:39;12.55;;;8.25;;
32521;SDS011;18963;51.504;5.316;2023-05-03T15:51:05;11.45;;;8.50;;
32521;SDS011;18963;51.504;5.316;2023-05-03T15:53:30;9.98;;;9.00;;
32521;SDS011;18963;51.504;5.316;2023-05-03T15:55:56;9.32;;;8.43;;
32521;SDS011;18963;51.504;5.316;2023-05-03T15:58:23;10.35;;;8.07;;
32521;SDS011;18963;51.504;5.316;2023-05-03T16:00:49;8.95;;;8.15;;
32521;SDS011;18963;51.504;5.316;2023-05-03T16:03:16;11.13;;;10.00;;
32521;SDS011;18963;51.504;5.316;2023-05-03T16:05:42;10.18;;;9.27;;
32521;SDS011;18963;51.504;5.316;2023-05-03T16:08:09;11.07;;;9.48;;
32521;SDS011;18963;51.504;5.316;2023-05-03T16:10:35;11.65;;;10.35;;
32521;SDS011;18963;51.504;5.316;2023-05-03T16:13:00;10.13;;;9.20;;
32521;SDS011;18963;51.504;5.316;2023-05-03T16:15:27;10.70;;;9.45;;
32521;SDS011;18963;51.504;5.316;2023-05-03T16:17:53;9.57;;;8.57;;
32521;SDS011;18963;51.504;5.316;2023-05-03T16:20:18;10.50;;;9.43;;
32521;SDS011;18963;51.504;5.316;2023-05-03T16:22:44;10.70;;;8.93;;
32521;SDS011;18963;51.504;5.316;2023-05-03T16:25:10;10.77;;;9.68;;
32521;SDS011;18963;51.504;5.316;2023-05-03T16:27:39;9.75;;;8.85;;
32521;SDS011;18963;51.504;5.316;2023-05-03T16:30:05;11.02;;;9.13;;
32521;SDS011;18963;51.504;5.316;2023-05-03T16:32:32;10.52;;;8.93;;
32521;SDS011;18963;51.504;5.316;2023-05-03T16:34:58;12.50;;;9.68;;
32521;SDS011;18963;51.504;5.316;2023-05-03T16:37:25;10.30;;;9.00;;
32521;SDS011;18963;51.504;5.316;2023-05-03T16:39:50;10.35;;;9.35;;
32521;SDS011;18963;51.504;5.316;2023-05-03T16:42:16;13.73;;;10.18;;
32521;SDS011;18963;51.504;5.316;2023-05-03T16:44:42;10.82;;;9.73;;
32521;SDS011;18963;51.504;5.316;2023-05-03T16:47:08;9.90;;;9.05;;
32521;SDS011;18963;51.504;5.316;2023-05-03T16:49:34;9.85;;;8.27;;
32521;SDS011;18963;51.504;5.316;2023-05-03T16:52:00;9.77;;;8.88;;
32521;SDS011;18963;51.504;5.316;2023-05-03T16:54:27;10.43;;;9.38;;
32521;SDS011;18963;51.504;5.316;2023-05-03T16:56:52;10.63;;;9.23;;
32521;SDS011;18963;51.504;5.316;2023-05-03T16:59:18;11.63;;;10.73;;
32521;SDS011;18963;51.504;5.316;2023-05-03T17:01:44;15.82;;;9.75;;
32521;SDS011;18963;51.504;5.316;2023-05-03T17:04:10;10.77;;;9.68;;
32521;SDS011;18963;51.504;5.316;2023-05-03T17:06:36;11.18;;;10.13;;
32521;SDS011;18963;51.504;5.316;2023-05-03T17:09:01;9.70;;;8.70;;
32521;SDS011;18963;51.504;5.316;2023-05-03T17:11:28;10.13;;;9.13;;